Time;durP1;ratioP1;P1;durP2;ratioP2;P2;SDS_P1;SDS_P2;PMS_P1;PMS_P2;Temp;Humidity;BMP_temperature;BMP_pressure;BME280_temperature;BME280_humidity;BME280_pressure;Samples;Min_cycle;Max_cycle;Signal;HPM_P1;HPM_P2
2021/09/17 00:01:52;;;;;;;6.63;6.00;;;17.30;86.00;;;;;;5061526;28;20197;-87
2021/09/17 00:04:18;;;;;;;7.00;6.45;;;17.40;85.60;;;;;;5057500;28;20733;-86
2021/09/17 00:06:44;;;;;;;7.07;6.43;;;17.40;85.70;;;;;;5064958;28;20215;-87
2021/09/17 00:09:10;;;;;;;7.93;7.13;;;17.40;85.70;;;;;;5065861;28;20218;-87
2021/09/17 00:11:35;;;;;;;6.72;6.18;;;17.40;85.10;;;;;;5067776;28;20238;-87
2021/09/17 00:14:01;;;;;;;8.27;6.40;;;17.40;85.80;;;;;;5070857;28;20242;-87
2021/09/17 00:16:27;;;;;;;7.20;6.65;;;17.40;85.80;;;;;;5073021;28;20242;-86
2021/09/17 00:18:53;;;;;;;7.70;7.07;;;17.50;85.90;;;;;;5070252;28;20229;-87
2021/09/17 00:21:18;;;;;;;7.95;7.25;;;17.50;85.80;;;;;;5053369;28;20196;-87
2021/09/17 00:23:44;;;;;;;8.10;7.40;;;17.50;85.50;;;;;;5063300;28;20191;-87
2021/09/17 00:26:10;;;;;;;8.23;7.55;;;17.30;86.70;;;;;;5062607;28;20225;-87
2021/09/17 00:28:36;;;;;;;7.70;6.85;;;17.40;86.20;;;;;;5062376;28;20254;-87
2021/09/17 00:31:02;;;;;;;7.70;6.97;;;17.40;86.30;;;;;;5028350;28;20188;-86
2021/09/17 00:33:30;;;;;;;7.43;6.82;;;17.50;86.10;;;;;;5063498;28;20404;-87
2021/09/17 00:35:56;;;;;;;8.02;7.32;;;17.50;86.30;;;;;;5062045;28;20191;-86
2021/09/17 00:38:21;;;;;;;8.80;8.00;;;17.40;86.20;;;;;;5067870;28;20207;-86
2021/09/17 00:40:47;;;;;;;8.00;7.20;;;17.30;86.00;;;;;;5070210;28;20186;-86
2021/09/17 00:43:14;;;;;;;8.27;7.68;;;17.30;86.50;;;;;;5065941;28;20204;-87
2021/09/17 00:45:41;;;;;;;8.10;7.40;;;17.40;86.20;;;;;;5065782;28;20210;-87
2021/09/17 00:48:07;;;;;;;7.20;6.50;;;17.40;86.20;;;;;;5052156;28;20284;-86
2021/09/17 00:50:33;;;;;;;7.85;6.88;;;17.40;86.20;;;;;;5046470;28;20195;-87
2021/09/17 00:52:59;;;;;;;7.80;7.10;;;17.30;86.40;;;;;;5055606;28;20201;-87
2021/09/17 00:55:25;;;;;;;8.63;7.10;;;17.10;86.90;;;;;;5062548;28;20191;-87
2021/09/17 00:57:51;;;;;;;7.47;6.97;;;17.00;87.50;;;;;;5062681;28;20226;-87
2021/09/17 01:00:17;;;;;;;7.47;6.85;;;16.80;88.20;;;;;;5058277;28;20263;-87
2021/09/17 01:02:43;;;;;;;7.63;6.93;;;16.80;88.80;;;;;;5064793;28;20197;-87
2021/09/17 01:05:11;;;;;;;6.70;6.20;;;16.90;89.10;;;;;;5055481;28;20185;-87
2021/09/17 01:07:37;;;;;;;8.05;7.20;;;17.00;88.60;;;;;;5061883;28;20222;-87
2021/09/17 01:10:05;;;;;;;7.72;6.97;;;17.00;87.50;;;;;;5054784;28;20279;-87
2021/09/17 01:12:31;;;;;;;7.97;7.13;;;17.00;87.30;;;;;;5061940;28;20300;-87
2021/09/17 01:14:57;;;;;;;7.25;6.53;;;17.00;87.40;;;;;;5062528;28;20760;-87
2021/09/17 01:17:34;;;;;;;8.00;7.40;;;16.90;87.80;;;;;;5066727;28;20210;-87
2021/09/17 01:20:01;;;;;;;7.22;6.65;;;17.00;86.80;;;;;;5065751;28;20260;-87
2021/09/17 01:22:27;;;;;;;7.15;6.65;;;16.90;87.80;;;;;;5051598;28;20222;-87
2021/09/17 01:24:53;;;;;;;7.78;7.10;;;17.00;87.40;;;;;;5055774;28;20223;-87
2021/09/17 01:27:19;;;;;;;7.22;6.53;;;17.10;87.10;;;;;;5051358;28;20209;-87
2021/09/17 01:29:45;;;;;;;6.65;6.15;;;17.00;86.90;;;;;;5060211;28;20182;-87
2021/09/17 01:32:10;;;;;;;7.55;6.68;;;17.10;86.50;;;;;;5052619;28;20203;-87
2021/09/17 01:34:36;;;;;;;7.75;6.47;;;17.10;86.00;;;;;;5052158;28;20207;-87
2021/09/17 01:37:02;;;;;;;6.93;6.00;;;17.10;86.20;;;;;;5065330;28;20199;-87
2021/09/17 01:39:28;;;;;;;9.73;6.60;;;17.10;86.20;;;;;;5062556;28;20345;-87
2021/09/17 01:41:54;;;;;;;6.85;6.25;;;17.10;85.80;;;;;;5058230;28;20187;-87
2021/09/17 01:44:20;;;;;;;7.05;6.45;;;16.90;85.60;;;;;;5053526;28;20196;-87
2021/09/17 01:46:46;;;;;;;6.40;5.80;;;16.90;86.50;;;;;;5055595;28;20217;-87
2021/09/17 01:49:11;;;;;;;7.18;6.50;;;16.80;86.20;;;;;;5043673;28;20224;-87
2021/09/17 01:51:37;;;;;;;6.72;6.05;;;16.80;86.50;;;;;;5043464;28;20192;-87
2021/09/17 01:54:04;;;;;;;7.10;6.40;;;16.70;86.80;;;;;;5066762;28;20234;-86
2021/09/17 01:56:31;;;;;;;6.85;6.25;;;16.80;86.80;;;;;;5066537;28;20193;-86
2021/09/17 01:58:58;;;;;;;6.05;5.57;;;16.70;85.70;;;;;;5055234;28;20223;-87
2021/09/17 02:01:25;;;;;;;7.30;6.60;;;16.70;86.30;;;;;;5050318;28;22203;-86
2021/09/17 02:03:51;;;;;;;7.30;6.57;;;16.80;85.40;;;;;;5063642;28;20210;-86
2021/09/17 02:06:21;;;;;;;6.68;6.05;;;16.70;86.10;;;;;;5062942;28;20301;-87
2021/09/17 02:08:47;;;;;;;6.47;5.90;;;16.70;86.80;;;;;;5063389;28;20215;-87
2021/09/17 02:11:13;;;;;;;8.85;5.68;;;16.70;86.60;;;;;;5065125;28;20196;-87
2021/09/17 02:13:39;;;;;;;6.03;5.43;;;16.70;86.10;;;;;;5065070;28;20186;-87
2021/09/17 02:16:05;;;;;;;6.13;5.63;;;16.70;85.20;;;;;;5062651;28;20224;-87
2021/09/17 02:18:31;;;;;;;6.05;5.45;;;16.70;85.00;;;;;;5066067;28;20238;-87
2021/09/17 02:20:57;;;;;;;5.97;5.47;;;16.80;84.70;;;;;;5049816;28;20199;-87
2021/09/17 02:23:22;;;;;;;6.47;5.53;;;16.60;84.10;;;;;;5055810;28;20206;-87
2021/09/17 02:25:48;;;;;;;7.50;5.35;;;16.50;85.00;;;;;;5063181;28;20220;-87
2021/09/17 02:28:14;;;;;;;5.75;5.25;;;16.50;84.90;;;;;;5065673;28;20210;-87
2021/09/17 02:30:40;;;;;;;5.78;5.18;;;16.60;84.50;;;;;;5052552;28;20222;-87
2021/09/17 02:33:06;;;;;;;6.10;5.50;;;16.60;84.90;;;;;;5054735;28;20246;-87
2021/09/17 02:35:32;;;;;;;8.13;6.38;;;16.60;85.00;;;;;;5046031;28;20682;-87
2021/09/17 02:37:57;;;;;;;6.28;5.63;;;16.50;85.10;;;;;;5061872;28;20222;-87
2021/09/17 02:40:23;;;;;;;5.60;4.97;;;16.50;85.20;;;;;;5058148;28;20220;-87
2021/09/17 02:42:49;;;;;;;5.40;5.00;;;16.50;84.90;;;;;;5060934;28;20245;-87
2021/09/17 02:45:15;;;;;;;7.97;6.03;;;16.60;84.50;;;;;;5052805;28;20195;-87
2021/09/17 02:47:44;;;;;;;6.13;5.60;;;16.50;84.40;;;;;;5059674;28;20214;-87
2021/09/17 02:50:10;;;;;;;8.15;5.70;;;16.60;84.10;;;;;;5041748;28;20192;-87
2021/09/17 02:52:36;;;;;;;7.55;6.15;;;16.50;84.20;;;;;;5045433;28;20194;-87
2021/09/17 02:55:03;;;;;;;5.88;5.38;;;16.40;85.00;;;;;;5064455;28;20205;-87
2021/09/17 02:57:29;;;;;;;5.82;5.13;;;16.40;84.70;;;;;;5066738;28;20213;-87
2021/09/17 02:59:55;;;;;;;6.97;5.28;;;16.40;84.40;;;;;;5067150;28;20243;-87
2021/09/17 03:02:20;;;;;;;5.70;5.20;;;16.30;83.10;;;;;;5062683;28;20197;-85
2021/09/17 03:04:46;;;;;;;5.55;5.05;;;16.30;84.50;;;;;;5070273;28;20217;-86
2021/09/17 03:07:12;;;;;;;5.43;4.97;;;16.40;83.70;;;;;;5071669;28;20238;-86
2021/09/17 03:09:38;;;;;;;6.37;5.50;;;16.30;83.80;;;;;;5061461;28;20201;-86
2021/09/17 03:12:04;;;;;;;7.90;5.97;;;16.30;84.00;;;;;;5056331;28;20220;-87
2021/09/17 03:14:30;;;;;;;5.77;5.27;;;16.20;83.20;;;;;;5049999;28;20211;-87
2021/09/17 03:16:56;;;;;;;5.00;4.60;;;16.10;84.20;;;;;;5064062;28;20185;-87
2021/09/17 03:19:22;;;;;;;5.83;5.13;;;16.10;85.00;;;;;;5060654;28;20223;-87
2021/09/17 03:21:48;;;;;;;6.30;5.70;;;16.10;84.00;;;;;;5064133;28;20258;-86
2021/09/17 03:24:14;;;;;;;7.87;5.50;;;16.10;83.80;;;;;;5057467;28;20181;-87
2021/09/17 03:26:39;;;;;;;5.53;5.13;;;16.00;84.30;;;;;;5052647;28;20237;-86
2021/09/17 03:29:05;;;;;;;5.80;5.20;;;16.00;84.40;;;;;;5053169;28;20204;-86
2021/09/17 03:31:32;;;;;;;7.13;5.00;;;15.90;84.70;;;;;;5065313;28;20187;-87
2021/09/17 03:33:59;;;;;;;5.57;4.90;;;16.00;84.40;;;;;;5060419;28;20193;-86
2021/09/17 03:36:26;;;;;;;7.57;5.40;;;16.00;84.10;;;;;;5057938;28;20649;-87
2021/09/17 03:38:55;;;;;;;6.03;5.47;;;16.00;83.80;;;;;;5049298;28;20245;-87
2021/09/17 03:41:23;;;;;;;6.20;5.70;;;16.00;83.80;;;;;;5060761;28;20219;-87
2021/09/17 03:43:49;;;;;;;6.43;5.70;;;16.00;83.50;;;;;;5061038;28;20281;-87
2021/09/17 03:46:14;;;;;;;6.50;5.87;;;16.00;84.00;;;;;;5049936;28;20236;-87
2021/09/17 03:48:41;;;;;;;8.93;5.93;;;15.90;83.90;;;;;;5064547;28;20227;-87
2021/09/17 03:51:07;;;;;;;5.77;5.13;;;15.80;84.10;;;;;;5049992;28;20231;-87
2021/09/17 03:53:33;;;;;;;5.73;5.23;;;15.90;84.50;;;;;;5050695;28;20196;-86
2021/09/17 03:55:59;;;;;;;5.70;5.20;;;15.90;84.10;;;;;;5061386;28;20213;-86
2021/09/17 03:58:25;;;;;;;5.83;5.20;;;15.80;84.20;;;;;;5062485;28;20258;-87
2021/09/17 04:00:51;;;;;;;5.07;4.60;;;15.80;84.00;;;;;;5059569;28;20230;-86
2021/09/17 04:03:17;;;;;;;4.97;4.57;;;15.80;83.90;;;;;;5064258;28;20192;-86
2021/09/17 04:05:42;;;;;;;5.37;4.97;;;15.80;84.00;;;;;;5062242;28;20224;-86
2021/09/17 04:08:08;;;;;;;7.17;5.50;;;15.80;84.20;;;;;;5062691;28;20275;-86
2021/09/17 04:10:34;;;;;;;5.43;4.97;;;15.80;83.70;;;;;;5061164;28;20193;-87
2021/09/17 04:13:00;;;;;;;7.13;5.77;;;15.80;84.10;;;;;;5061491;28;20181;-87
2021/09/17 04:15:26;;;;;;;5.33;4.70;;;15.70;83.10;;;;;;5033065;28;20208;-86
2021/09/17 04:17:52;;;;;;;5.37;4.97;;;15.70;83.70;;;;;;5047984;28;20217;-86
2021/09/17 04:20:18;;;;;;;5.80;5.30;;;15.70;83.50;;;;;;5054892;28;20197;-86
2021/09/17 04:22:44;;;;;;;5.63;4.43;;;15.60;83.50;;;;;;5061418;28;20294;-87
2021/09/17 04:25:10;;;;;;;4.83;4.43;;;15.70;83.30;;;;;;5060562;28;20191;-88
2021/09/17 04:27:37;;;;;;;5.30;4.90;;;15.50;83.80;;;;;;5056650;28;20207;-88
2021/09/17 04:30:05;;;;;;;6.80;4.77;;;15.50;84.20;;;;;;5060957;28;20745;-87
2021/09/17 04:32:31;;;;;;;4.97;4.57;;;15.50;84.00;;;;;;5063824;28;20543;-88
2021/09/17 04:34:57;;;;;;;5.87;4.87;;;15.50;83.90;;;;;;5056492;28;20185;-87
2021/09/17 04:37:22;;;;;;;5.17;4.73;;;15.40;83.70;;;;;;5064862;28;20221;-86
2021/09/17 04:39:49;;;;;;;5.87;5.20;;;15.50;83.80;;;;;;5069012;28;20206;-86
2021/09/17 04:42:14;;;;;;;4.63;4.23;;;15.50;83.80;;;;;;5070187;28;20180;-86
2021/09/17 04:44:40;;;;;;;6.73;4.47;;;15.50;83.50;;;;;;5064102;28;20196;-87
2021/09/17 04:47:06;;;;;;;4.90;4.50;;;15.40;83.20;;;;;;5060269;28;20216;-88
2021/09/17 04:49:32;;;;;;;5.40;4.77;;;15.50;83.80;;;;;;5062772;28;20211;-87
2021/09/17 04:51:58;;;;;;;5.93;4.57;;;15.50;83.60;;;;;;5063563;28;20212;-86
2021/09/17 04:54:24;;;;;;;5.60;5.10;;;15.50;83.20;;;;;;5062796;28;20184;-86
2021/09/17 04:56:50;;;;;;;5.53;4.50;;;15.50;83.70;;;;;;5060872;28;20188;-87
2021/09/17 04:59:15;;;;;;;5.80;4.60;;;15.50;83.50;;;;;;5061033;28;20245;-87
2021/09/17 05:01:41;;;;;;;5.50;4.43;;;15.50;83.90;;;;;;5061123;28;20206;-87
2021/09/17 05:04:07;;;;;;;5.23;4.63;;;15.50;83.70;;;;;;5062757;28;20196;-88
2021/09/17 05:06:33;;;;;;;5.50;4.83;;;15.50;83.40;;;;;;5063019;28;20223;-87
2021/09/17 05:09:00;;;;;;;8.50;4.63;;;15.50;82.80;;;;;;5062913;28;20204;-86
2021/09/17 05:11:26;;;;;;;4.30;4.00;;;15.30;83.00;;;;;;5057244;28;20223;-87
2021/09/17 05:13:51;;;;;;;6.10;4.47;;;15.40;83.70;;;;;;5065093;28;20193;-87
2021/09/17 05:16:17;;;;;;;5.00;4.50;;;15.40;84.10;;;;;;5058622;28;20726;-87
2021/09/17 05:18:43;;;;;;;5.17;4.77;;;15.40;83.40;;;;;;5060676;28;20415;-87
2021/09/17 05:21:10;;;;;;;5.63;4.63;;;15.40;84.40;;;;;;5056751;28;20191;-87
2021/09/17 05:23:36;;;;;;;5.03;4.63;;;15.40;84.20;;;;;;5061063;28;20818;-87
2021/09/17 05:26:03;;;;;;;5.43;4.60;;;15.50;84.40;;;;;;5062400;28;20222;-88
2021/09/17 05:28:30;;;;;;;8.13;5.10;;;15.50;84.20;;;;;;5058786;28;20218;-87
2021/09/17 05:30:56;;;;;;;6.47;4.90;;;15.60;84.10;;;;;;5054480;28;20216;-87
2021/09/17 05:33:22;;;;;;;8.07;4.90;;;15.60;84.00;;;;;;5060983;28;20184;-88
2021/09/17 05:35:48;;;;;;;8.50;5.20;;;15.60;84.30;;;;;;5057966;28;20201;-88
2021/09/17 05:38:13;;;;;;;6.47;4.70;;;15.60;83.70;;;;;;5057375;28;20213;-87
2021/09/17 05:40:39;;;;;;;8.07;4.30;;;15.60;84.60;;;;;;5063201;28;20203;-87
2021/09/17 05:43:05;;;;;;;6.13;4.60;;;15.70;84.70;;;;;;5046714;28;20205;-87
2021/09/17 05:45:31;;;;;;;6.00;5.00;;;15.70;84.30;;;;;;5054587;28;20223;-88
2021/09/17 05:47:57;;;;;;;7.87;4.40;;;15.80;84.00;;;;;;5060826;28;20213;-88
2021/09/17 05:50:23;;;;;;;9.63;5.37;;;15.90;84.30;;;;;;5064592;28;20714;-87
2021/09/17 05:52:49;;;;;;;5.40;5.00;;;15.80;83.70;;;;;;5067507;28;20192;-88
2021/09/17 05:55:15;;;;;;;5.87;4.40;;;15.70;83.80;;;;;;5058693;28;20193;-88
2021/09/17 05:57:41;;;;;;;5.30;4.80;;;15.60;85.00;;;;;;5048289;28;20208;-87
2021/09/17 06:00:09;;;;;;;7.57;5.20;;;15.70;86.10;;;;;;5066775;28;20192;-89
2021/09/17 06:02:35;;;;;;;6.50;4.70;;;15.80;85.30;;;;;;5064070;28;20192;-87
2021/09/17 06:05:01;;;;;;;5.53;5.03;;;15.80;85.10;;;;;;5067532;28;20255;-88
2021/09/17 06:07:27;;;;;;;9.00;5.50;;;15.80;85.60;;;;;;5063776;28;20212;-87
2021/09/17 06:09:53;;;;;;;7.93;5.33;;;15.80;84.80;;;;;;5066161;28;20196;-88
2021/09/17 06:12:19;;;;;;;6.70;4.97;;;15.70;85.40;;;;;;5066732;28;20300;-86
2021/09/17 06:14:44;;;;;;;5.63;5.07;;;15.80;85.70;;;;;;5066320;28;20197;-87
2021/09/17 06:17:10;;;;;;;5.67;4.90;;;15.80;85.90;;;;;;5062840;28;20199;-88
2021/09/17 06:19:36;;;;;;;7.30;5.00;;;15.90;86.10;;;;;;5065317;28;20215;-86
2021/09/17 06:22:02;;;;;;;5.50;5.00;;;15.80;86.20;;;;;;5060117;28;20208;-87
2021/09/17 06:24:28;;;;;;;7.50;5.40;;;15.90;86.20;;;;;;5056720;28;20212;-87
2021/09/17 06:26:54;;;;;;;8.70;5.13;;;16.00;85.70;;;;;;5063922;28;20259;-88
2021/09/17 06:29:19;;;;;;;5.67;5.10;;;16.10;85.70;;;;;;5065463;28;20213;-87
2021/09/17 06:31:45;;;;;;;8.03;5.87;;;16.00;85.60;;;;;;5064096;28;20190;-88
2021/09/17 06:34:11;;;;;;;5.87;5.23;;;16.00;86.10;;;;;;5064087;28;20270;-88
2021/09/17 06:36:37;;;;;;;8.20;5.40;;;15.90;86.90;;;;;;5046844;28;20197;-87
2021/09/17 06:39:04;;;;;;;5.57;4.73;;;16.00;87.00;;;;;;5063863;28;20234;-86
2021/09/17 06:41:30;;;;;;;5.63;5.00;;;16.10;86.90;;;;;;5068901;28;20201;-87
2021/09/17 06:43:57;;;;;;;8.67;5.30;;;16.30;86.40;;;;;;5063617;28;20196;-87
2021/09/17 06:46:23;;;;;;;6.37;5.17;;;16.30;86.20;;;;;;5058319;28;20735;-88
2021/09/17 06:48:49;;;;;;;8.37;5.20;;;16.40;86.40;;;;;;5058435;28;20209;-87
2021/09/17 06:51:15;;;;;;;6.80;4.97;;;16.50;86.10;;;;;;5051110;28;20188;-89
2021/09/17 06:53:41;;;;;;;8.43;5.87;;;16.50;86.00;;;;;;5064736;28;20185;-89
2021/09/17 06:56:08;;;;;;;6.07;5.43;;;16.30;87.10;;;;;;5060145;28;20663;-89
2021/09/17 06:58:35;;;;;;;6.10;5.50;;;16.20;88.40;;;;;;5059414;28;20212;-89
2021/09/17 07:01:02;;;;;;;6.33;5.73;;;16.20;88.10;;;;;;5066874;28;20191;-89
2021/09/17 07:03:28;;;;;;;6.20;5.63;;;16.20;88.20;;;;;;5056367;28;20203;-89
2021/09/17 07:05:54;;;;;;;6.17;5.60;;;16.10;89.30;;;;;;5042928;28;20224;-89
2021/09/17 07:08:20;;;;;;;6.13;5.63;;;16.20;89.40;;;;;;5065017;28;20218;-89
2021/09/17 07:10:48;;;;;;;9.57;6.03;;;16.30;89.00;;;;;;5064056;28;20195;-89
2021/09/17 07:13:14;;;;;;;7.53;5.73;;;16.40;88.50;;;;;;5062002;28;20252;-89
2021/09/17 07:15:40;;;;;;;6.63;6.03;;;16.30;89.30;;;;;;5062382;28;20203;-89
2021/09/17 07:18:07;;;;;;;5.83;5.23;;;16.40;89.60;;;;;;5064641;28;20218;-88
2021/09/17 07:20:34;;;;;;;7.63;5.80;;;16.50;88.60;;;;;;5071281;28;20179;-87
2021/09/17 07:23:00;;;;;;;5.87;5.33;;;16.60;87.30;;;;;;5071821;28;20188;-89
2021/09/17 07:25:26;;;;;;;6.33;5.80;;;16.70;88.40;;;;;;5050505;28;20283;-89
2021/09/17 07:27:53;;;;;;;9.57;6.47;;;16.70;88.60;;;;;;5049650;28;20223;-89
2021/09/17 07:30:19;;;;;;;6.67;5.67;;;16.90;87.60;;;;;;5062536;28;20217;-89
2021/09/17 07:32:45;;;;;;;6.33;5.73;;;16.80;88.40;;;;;;5060727;28;20200;-89
2021/09/17 07:35:12;;;;;;;6.63;6.00;;;16.90;87.60;;;;;;5062227;28;20193;-89
2021/09/17 07:37:38;;;;;;;6.90;6.30;;;17.00;87.00;;;;;;5065097;28;20236;-90
2021/09/17 07:40:05;;;;;;;7.35;6.72;;;17.00;86.80;;;;;;5049268;28;20186;-89
2021/09/17 07:42:32;;;;;;;7.00;6.38;;;16.90;88.40;;;;;;5046780;28;20184;-89
2021/09/17 07:44:58;;;;;;;10.57;6.43;;;16.70;88.70;;;;;;5050717;28;20174;-89
2021/09/17 07:47:24;;;;;;;7.20;6.57;;;16.60;89.80;;;;;;5054070;28;20222;-88
2021/09/17 07:49:51;;;;;;;7.20;6.50;;;16.60;89.50;;;;;;5041055;28;20199;-88
2021/09/17 07:52:18;;;;;;;9.13;6.93;;;16.70;89.00;;;;;;5061752;28;20262;-89
2021/09/17 07:54:44;;;;;;;6.88;6.25;;;16.90;87.60;;;;;;5039619;28;20215;-89
2021/09/17 07:57:10;;;;;;;7.47;5.95;;;17.20;86.50;;;;;;5031393;28;20194;-89
2021/09/17 07:59:36;;;;;;;7.50;5.75;;;17.40;86.10;;;;;;5065472;28;20180;-89
2021/09/17 08:02:02;;;;;;;7.00;5.88;;;17.40;86.60;;;;;;5060380;28;20184;-88
2021/09/17 08:04:28;;;;;;;7.05;6.32;;;17.50;86.70;;;;;;5049708;28;20206;-88
2021/09/17 08:06:54;;;;;;;6.63;6.03;;;17.60;86.20;;;;;;5046868;28;20735;-89
2021/09/17 08:09:20;;;;;;;6.95;6.25;;;17.60;87.90;;;;;;5040719;28;20209;-89
2021/09/17 08:11:46;;;;;;;5.82;5.25;;;17.50;88.40;;;;;;5053900;28;20267;-89
2021/09/17 08:14:12;;;;;;;7.18;6.38;;;17.70;86.90;;;;;;5059291;28;20246;-89
2021/09/17 08:16:38;;;;;;;9.65;6.00;;;17.70;86.40;;;;;;5042254;28;20199;-89
2021/09/17 08:19:04;;;;;;;6.78;6.05;;;17.80;86.50;;;;;;5048618;28;20260;-89
2021/09/17 08:21:30;;;;;;;6.57;5.97;;;17.90;86.90;;;;;;5066644;28;20194;-89
2021/09/17 08:23:56;;;;;;;6.57;6.07;;;17.90;87.00;;;;;;5063478;28;20202;-89
2021/09/17 08:26:22;;;;;;;6.20;5.75;;;18.00;86.30;;;;;;5047203;28;20649;-89
2021/09/17 08:28:48;;;;;;;6.53;6.03;;;18.10;86.80;;;;;;5065057;28;20207;-89
2021/09/17 08:31:14;;;;;;;6.68;6.15;;;18.10;86.90;;;;;;5059255;28;20188;-89
2021/09/17 08:33:41;;;;;;;6.45;5.80;;;18.20;86.50;;;;;;5053854;28;20193;-89
2021/09/17 08:36:09;;;;;;;7.30;6.30;;;18.20;86.80;;;;;;5060835;28;20203;-89
2021/09/17 08:38:35;;;;;;;7.10;6.32;;;18.40;84.70;;;;;;5062827;28;20688;-87
2021/09/17 08:41:01;;;;;;;7.75;7.13;;;18.40;85.50;;;;;;5062062;28;20214;-86
2021/09/17 08:43:27;;;;;;;7.57;6.88;;;18.40;85.10;;;;;;5068172;28;20180;-87
2021/09/17 08:45:53;;;;;;;13.88;8.43;;;18.40;83.80;;;;;;5065806;28;20216;-88
2021/09/17 08:48:27;;;;;;;7.85;6.72;;;18.50;82.80;;;;;;5066487;28;20294;-89
2021/09/17 08:50:55;;;;;;;7.80;6.95;;;18.60;82.60;;;;;;5042400;28;20187;-90
2021/09/17 08:53:21;;;;;;;7.63;7.00;;;18.80;82.80;;;;;;5046355;28;20187;-89
2021/09/17 08:55:49;;;;;;;9.55;8.27;;;18.80;82.90;;;;;;5050936;28;20192;-89
2021/09/17 08:58:15;;;;;;;8.50;7.80;;;18.80;81.80;;;;;;5058960;28;20219;-90
2021/09/17 09:00:44;;;;;;;7.93;7.10;;;18.90;82.70;;;;;;5064212;28;20280;-88
2021/09/17 09:03:11;;;;;;;10.38;8.73;;;19.00;82.60;;;;;;5060339;28;20813;-89
2021/09/17 09:05:39;;;;;;;12.63;10.25;;;19.10;82.10;;;;;;5052882;28;20209;-88
2021/09/17 09:08:06;;;;;;;9.43;8.50;;;19.20;80.50;;;;;;5050502;28;20211;-89
2021/09/17 09:10:32;;;;;;;9.70;8.80;;;19.30;80.40;;;;;;5042162;28;20192;-89
2021/09/17 09:13:05;;;;;;;9.43;7.80;;;19.40;80.70;;;;;;5046267;28;20192;-88
2021/09/17 09:15:37;;;;;;;9.85;8.85;;;19.40;80.60;;;;;;5021945;28;20196;-88
2021/09/17 09:18:12;;;;;;;12.48;10.57;;;19.50;80.30;;;;;;5046276;28;20222;-88
2021/09/17 09:20:45;;;;;;;13.20;10.77;;;19.60;77.40;;;;;;5055592;28;20191;-88
2021/09/17 09:23:23;;;;;;;12.15;10.77;;;19.60;78.40;;;;;;5055247;28;20215;-88
2021/09/17 09:25:57;;;;;;;15.57;10.48;;;19.70;79.10;;;;;;5054582;28;20199;-88
2021/09/17 09:44:21;;;;;;;16.17;12.82;;;20.10;77.20;;;;;;2420061;26;20220;-88
2021/09/17 09:47:25;;;;;;;14.15;12.63;;;20.10;74.30;;;;;;5039569;28;20224;-89
2021/09/17 09:50:38;;;;;;;17.00;12.25;;;20.00;72.70;;;;;;5011438;28;20210;-88
2021/09/17 09:53:45;;;;;;;13.70;11.65;;;20.10;72.60;;;;;;5013476;28;20210;-88
2021/09/17 09:56:11;;;;;;;13.95;10.68;;;20.30;73.30;;;;;;4999515;28;20197;-88
2021/09/17 09:58:37;;;;;;;13.02;11.77;;;20.30;70.70;;;;;;4974853;28;20252;-88
2021/09/17 10:01:03;;;;;;;11.93;10.70;;;20.30;71.00;;;;;;5004069;28;20650;-89
2021/09/17 10:03:36;;;;;;;11.90;10.80;;;20.30;70.40;;;;;;5020478;28;20193;-88
2021/09/17 10:06:09;;;;;;;12.38;11.13;;;20.40;69.60;;;;;;5002242;28;20643;-89
2021/09/17 10:08:39;;;;;;;14.35;11.05;;;20.50;68.60;;;;;;5019403;28;20209;-89
2021/09/17 10:11:05;;;;;;;11.85;10.75;;;20.40;69.10;;;;;;5033544;28;20268;-88
2021/09/17 10:13:56;;;;;;;13.15;11.80;;;20.40;69.60;;;;;;5005045;28;20197;-89
2021/09/17 10:16:31;;;;;;;10.93;9.82;;;20.70;68.20;;;;;;5018030;28;20191;-89
2021/09/17 10:19:04;;;;;;;11.07;10.02;;;20.70;66.50;;;;;;5022363;28;20211;-89
2021/09/17 10:21:45;;;;;;;15.60;10.63;;;20.70;67.00;;;;;;5020494;28;20195;-89
2021/09/17 10:24:38;;;;;;;11.10;10.00;;;20.70;66.90;;;;;;5018903;28;20187;-89
2021/09/17 10:27:27;;;;;;;11.32;9.02;;;20.70;66.50;;;;;;5024361;28;20224;-89
2021/09/17 10:29:52;;;;;;;10.50;9.60;;;20.80;67.30;;;;;;5020954;28;20195;-88
2021/09/17 10:32:27;;;;;;;9.63;8.65;;;21.00;64.70;;;;;;5020170;28;20211;-89
2021/09/17 10:35:10;;;;;;;9.50;8.13;;;21.00;64.60;;;;;;5015985;28;20235;-89
2021/09/17 10:38:00;;;;;;;8.48;7.20;;;21.50;61.80;;;;;;5017584;28;20245;-89
2021/09/17 10:40:42;;;;;;;13.43;8.65;;;21.70;61.50;;;;;;5020850;28;20208;-89
2021/09/17 10:43:11;;;;;;;10.38;8.18;;;21.80;61.70;;;;;;5020843;28;20213;-90
2021/09/17 10:45:46;;;;;;;10.38;8.20;;;21.80;61.40;;;;;;5018188;28;20209;-90
2021/09/17 10:48:14;;;;;;;8.43;7.00;;;21.90;60.10;;;;;;5004046;28;20217;-90
2021/09/17 10:50:57;;;;;;;8.38;7.68;;;21.90;61.50;;;;;;4988950;28;20189;-89
2021/09/17 10:53:41;;;;;;;9.48;6.88;;;22.00;58.90;;;;;;5013446;28;20197;-90
2021/09/17 10:56:15;;;;;;;7.82;6.65;;;22.10;59.50;;;;;;5019116;28;20193;-90
2021/09/17 10:58:44;;;;;;;8.07;7.38;;;22.10;58.70;;;;;;5018915;28;20209;-90
2021/09/17 11:01:16;;;;;;;8.27;7.13;;;21.80;58.50;;;;;;4989051;28;20554;-90
2021/09/17 11:03:46;;;;;;;6.90;5.80;;;22.10;57.30;;;;;;5026988;28;20601;-91
2021/09/17 11:06:27;;;;;;;7.00;5.90;;;22.10;57.60;;;;;;5019978;28;20214;-90
2021/09/17 11:09:02;;;;;;;7.05;6.45;;;22.20;55.80;;;;;;5025741;28;20193;-90
2021/09/17 11:11:32;;;;;;;6.57;5.65;;;22.40;56.80;;;;;;5003443;28;20197;-90
2021/09/17 11:14:08;;;;;;;9.32;6.18;;;22.50;54.00;;;;;;5019657;28;20185;-90
2021/09/17 11:16:35;;;;;;;8.82;6.43;;;22.80;54.50;;;;;;5005084;28;20193;-90
2021/09/17 11:25:34;;;;;;;4.95;4.55;;;23.20;50.90;;;;;;4981570;28;20285;-90
2021/09/17 11:29:12;;;;;;;;;;;;;;;;;;;;;
2021/09/17 11:32:05;;;;;;;4.72;4.35;;;23.30;50.50;;;;;;4911196;29;20260;-88
2021/09/17 11:34:36;;;;;;;4.35;4.00;;;23.40;50.40;;;;;;4949468;28;20188;-88
2021/09/17 11:37:05;;;;;;;4.25;3.83;;;23.50;48.40;;;;;;5016743;28;20216;-88
2021/09/17 11:39:40;;;;;;;5.05;4.40;;;23.40;44.70;;;;;;5000527;28;20198;-89
2021/09/17 11:42:15;;;;;;;3.95;3.58;;;23.70;48.00;;;;;;5018721;28;20194;-89
2021/09/17 11:44:51;;;;;;;3.22;2.97;;;24.10;43.90;;;;;;5000857;28;20201;-90
2021/09/17 11:47:32;;;;;;;4.22;3.83;;;24.30;41.90;;;;;;5016451;28;20281;-90
2021/09/17 11:50:13;;;;;;;4.32;3.90;;;24.60;43.20;;;;;;5018634;28;20674;-90
2021/09/17 11:53:05;;;;;;;3.85;3.55;;;24.60;42.10;;;;;;5047116;28;20247;-90
2021/09/17 11:55:37;;;;;;;4.07;3.40;;;25.00;42.70;;;;;;5046288;28;20188;-89
2021/09/17 11:58:03;;;;;;;3.78;3.47;;;25.20;43.10;;;;;;5024782;28;20293;-88
2021/09/17 12:00:49;;;;;;;3.53;3.22;;;25.30;39.90;;;;;;5020042;28;20197;-87
2021/09/17 12:03:32;;;;;;;3.53;2.70;;;25.60;39.50;;;;;;5021996;28;20168;-89
2021/09/17 12:06:23;;;;;;;3.50;3.30;;;25.80;37.10;;;;;;5019727;28;20218;-88
2021/09/17 12:08:57;;;;;;;3.10;2.75;;;26.00;39.00;;;;;;5018521;28;20690;-88
2021/09/17 12:11:22;;;;;;;3.00;2.70;;;26.20;35.40;;;;;;5017981;28;20185;-90
2021/09/17 12:13:56;;;;;;;2.75;2.55;;;26.30;36.20;;;;;;5018408;28;20193;-89
2021/09/17 12:16:21;;;;;;;3.22;2.72;;;26.10;35.20;;;;;;5016349;28;20279;-86
2021/09/17 12:19:01;;;;;;;3.08;2.88;;;26.20;36.60;;;;;;5017425;28;20217;-87
2021/09/17 12:21:27;;;;;;;3.17;2.97;;;26.90;35.10;;;;;;5015121;28;20197;-87
2021/09/17 12:23:53;;;;;;;3.65;3.10;;;26.80;35.10;;;;;;5000180;28;20194;-87
2021/09/17 12:26:19;;;;;;;3.00;2.80;;;27.10;35.20;;;;;;5018539;28;20296;-87
2021/09/17 12:28:51;;;;;;;3.10;2.90;;;27.00;36.60;;;;;;5019851;28;20206;-89
2021/09/17 12:31:31;;;;;;;3.45;3.15;;;26.60;36.40;;;;;;5016772;28;20235;-89
2021/09/17 12:34:17;;;;;;;3.10;2.90;;;26.60;36.20;;;;;;5017574;28;20194;-87
2021/09/17 12:36:49;;;;;;;2.35;2.25;;;26.60;35.60;;;;;;5014885;28;20200;-87
2021/09/17 12:39:23;;;;;;;2.70;2.47;;;26.70;34.50;;;;;;5016578;28;20225;-88
2021/09/17 12:42:07;;;;;;;2.85;2.53;;;26.90;33.10;;;;;;5014871;28;20199;-87
2021/09/17 12:44:41;;;;;;;2.78;2.58;;;27.30;33.50;;;;;;5017823;28;20189;-87
2021/09/17 12:47:09;;;;;;;2.10;2.00;;;27.60;32.80;;;;;;5019430;28;20735;-86
2021/09/17 12:49:36;;;;;;;4.97;4.63;;;27.90;32.30;;;;;;5016049;28;20260;-85
2021/09/17 12:52:07;;;;;;;2.50;2.40;;;28.00;31.00;;;;;;5017178;28;20185;-84
2021/09/17 12:54:37;;;;;;;2.40;2.30;;;28.10;30.10;;;;;;5016647;28;20181;-84
2021/09/17 12:57:21;;;;;;;2.47;2.38;;;28.30;29.80;;;;;;5016327;28;20218;-85
2021/09/17 13:00:16;;;;;;;4.47;2.70;;;28.60;28.90;;;;;;5016599;28;20185;-85
2021/09/17 13:02:42;;;;;;;2.65;2.45;;;28.40;29.30;;;;;;5015320;28;20229;-84
2021/09/17 13:05:10;;;;;;;2.90;2.70;;;28.60;29.40;;;;;;5021105;28;20189;-84
2021/09/17 13:07:36;;;;;;;2.53;2.33;;;28.00;29.90;;;;;;5032804;28;20217;-83
2021/09/17 13:10:03;;;;;;;2.58;2.30;;;28.20;30.70;;;;;;5035632;28;20252;-83
2021/09/17 13:12:29;;;;;;;2.25;2.15;;;28.20;29.80;;;;;;5034170;28;20196;-84
2021/09/17 13:14:55;;;;;;;2.78;2.58;;;28.10;29.80;;;;;;5017302;28;20209;-84
2021/09/17 13:17:22;;;;;;;2.53;2.42;;;28.70;29.50;;;;;;5018452;28;20193;-84